createdAt,value
2023-03-20T00:01:30.619Z,99179.59
2023-03-20T00:03:58.087Z,99182.81
2023-03-20T00:06:31.310Z,99184.44
2023-03-20T00:08:58.375Z,99184.63
2023-03-20T00:11:30.876Z,99184.56
2023-03-20T00:14:13.824Z,99184.63
2023-03-20T00:16:46.758Z,99189.78
2023-03-20T00:19:29.296Z,99192.34
2023-03-20T00:21:56.478Z,99185.75
2023-03-20T00:24:24.499Z,99195.84
2023-03-20T00:26:53.066Z,99183.88
2023-03-20T00:29:24.897Z,99162.13
2023-03-20T00:31:52.532Z,99190.66
2023-03-20T00:34:23.716Z,99187.38
2023-03-20T00:36:52.062Z,99192.47
2023-03-20T00:39:19.542Z,99192.63
2023-03-20T00:41:54.920Z,99190.81
2023-03-20T00:44:28.372Z,99181.44
2023-03-20T00:47:00.438Z,99155.41
2023-03-20T00:49:34.302Z,99190.66
2023-03-20T00:52:03.417Z,99201.09
2023-03-20T00:54:31.007Z,99190.09
2023-03-20T00:57:14.693Z,99187.97
2023-03-20T01:00:05.357Z,99192.19
2023-03-20T01:02:32.845Z,99196.22
2023-03-20T01:05:00.058Z,99195.56
2023-03-20T01:07:27.689Z,99209.19
2023-03-20T01:09:54.503Z,99186.25
2023-03-20T01:12:21.333Z,99198.78
2023-03-20T01:14:54.715Z,99204.88
2023-03-20T01:17:25.999Z,99202.56
2023-03-20T01:19:53.269Z,99207.38
2023-03-20T01:22:20.525Z,99201.56
2023-03-20T01:24:47.636Z,99191.66
2023-03-20T01:27:19.878Z,99188.22
2023-03-20T01:29:47.280Z,99195.75
2023-03-20T01:32:19.579Z,99203.53
2023-03-20T01:34:47.550Z,99207.59
2023-03-20T01:37:22.678Z,99211.53
2023-03-20T01:39:49.498Z,99208.72
2023-03-20T01:42:17.158Z,99202.69
2023-03-20T01:44:44.762Z,99213.72
2023-03-20T01:47:29.851Z,99212.88
2023-03-20T01:50:22.780Z,99223.25
2023-03-20T01:52:55.606Z,99197.81
2023-03-20T01:55:23.165Z,99201.03
2023-03-20T01:57:51.902Z,99199.53
2023-03-20T02:00:19.058Z,99207.06
2023-03-20T02:02:48.175Z,99191.78
2023-03-20T02:05:19.454Z,99208.09
2023-03-20T02:08:13.317Z,99203.69
2023-03-20T02:10:41.171Z,99177.94
2023-03-20T02:13:09.443Z,99210.13
2023-03-20T02:15:37.048Z,99199.91
2023-03-20T02:18:04.357Z,99221.06
2023-03-20T02:20:45.859Z,99217.63
2023-03-20T02:24:09.760Z,99221.22
2023-03-20T02:27:20.876Z,99223.78
2023-03-20T02:30:31.251Z,99226.53
2023-03-20T02:33:36.878Z,99222.47
2023-03-20T02:36:27.134Z,99236.13
2023-03-20T02:39:37.055Z,99237.78
2023-03-20T02:42:37.808Z,99239.59
2023-03-20T02:45:15.453Z,99235.34
2023-03-20T02:48:13.861Z,99238.72
2023-03-20T02:51:01.128Z,99231.00
2023-03-20T02:53:36.018Z,99235.56
2023-03-20T02:56:35.457Z,99234.31
2023-03-20T02:59:45.904Z,99222.25
2023-03-20T03:02:22.353Z,99233.94
2023-03-20T03:04:54.770Z,99231.50
2023-03-20T03:07:26.761Z,99213.63
2023-03-20T03:10:22.315Z,99209.34
2023-03-20T03:12:51.716Z,99233.94
2023-03-20T03:15:31.358Z,99240.94
2023-03-20T03:18:00.298Z,99240.81
2023-03-20T03:20:37.932Z,99234.88
2023-03-20T03:23:05.780Z,99239.19
2023-03-20T03:25:40.055Z,99240.06
2023-03-20T03:28:37.589Z,99242.63
2023-03-20T03:31:08.657Z,99242.63
2023-03-20T03:33:40.006Z,99226.53
2023-03-20T03:36:35.760Z,99247.69
2023-03-20T03:39:28.558Z,99241.22
2023-03-20T03:42:13.978Z,99243.81
2023-03-20T03:45:04.382Z,99246.41
2023-03-20T03:47:52.121Z,99257.19
2023-03-20T03:50:27.388Z,99251.44
2023-03-20T03:52:58.278Z,99266.75
2023-03-20T03:55:31.557Z,99266.06
2023-03-20T03:58:07.273Z,99258.38
2023-03-20T04:00:36.009Z,99272.03
2023-03-20T04:03:06.157Z,99250.97
2023-03-20T04:05:36.950Z,99255.06
2023-03-20T04:08:06.275Z,99260.22
2023-03-20T04:10:33.346Z,99276.97
2023-03-20T04:13:00.341Z,99276.88
2023-03-20T04:15:27.895Z,99262.72
2023-03-20T04:17:54.737Z,99267.06
2023-03-20T04:20:21.743Z,99280.88
2023-03-20T04:22:48.861Z,99274.66
2023-03-20T04:25:26.051Z,99281.53
2023-03-20T04:27:53.107Z,99272.00
2023-03-20T04:30:19.969Z,99281.91
2023-03-20T04:32:46.875Z,99278.34
2023-03-20T04:35:13.856Z,99287.72
2023-03-20T04:37:40.867Z,99275.63
2023-03-20T04:40:08.194Z,99272.97
2023-03-20T04:42:35.037Z,99266.22
2023-03-20T04:45:01.920Z,99261.03
2023-03-20T04:47:28.803Z,99263.31
2023-03-20T04:49:55.687Z,99261.59
2023-03-20T04:52:22.603Z,99253.06
2023-03-20T04:54:49.418Z,99256.56
2023-03-20T04:57:16.824Z,99250.88
2023-03-20T04:59:43.668Z,99263.47
2023-03-20T05:02:14.873Z,99261.66
2023-03-20T05:04:44.904Z,99272.03
2023-03-20T05:07:11.728Z,99270.38
2023-03-20T05:09:38.531Z,99284.22
2023-03-20T05:12:05.770Z,99281.69
2023-03-20T05:14:32.558Z,99264.81
2023-03-20T05:16:59.470Z,99286.06
2023-03-20T05:19:26.340Z,99270.91
2023-03-20T05:21:53.230Z,99292.13
2023-03-20T05:24:20.950Z,99287.16
2023-03-20T05:26:47.831Z,99293.91
2023-03-20T05:29:14.770Z,99288.13
2023-03-20T05:31:41.691Z,99273.09
2023-03-20T05:34:08.507Z,99283.22
2023-03-20T05:36:35.294Z,99306.91
2023-03-20T05:39:02.135Z,99297.03
2023-03-20T05:41:28.999Z,99291.88
2023-03-20T05:43:55.918Z,99307.09
2023-03-20T05:46:22.946Z,99305.38
2023-03-20T05:48:49.877Z,99301.84
2023-03-20T05:51:16.721Z,99299.19
2023-03-20T05:53:43.539Z,99300.03
2023-03-20T05:56:10.448Z,99304.38
2023-03-20T05:58:37.546Z,99312.06
2023-03-20T06:01:04.728Z,99278.44
2023-03-20T06:03:31.645Z,99294.47
2023-03-20T06:05:58.457Z,99309.84
2023-03-20T06:08:25.718Z,99308.97
2023-03-20T06:10:53.057Z,99319.84
2023-03-20T06:13:20.006Z,99329.25
2023-03-20T06:15:46.822Z,99311.72
2023-03-20T06:18:13.729Z,99329.47
2023-03-20T06:20:40.564Z,99316.53
2023-03-20T06:23:07.572Z,99329.25
2023-03-20T06:25:34.720Z,99319.09
2023-03-20T06:28:01.802Z,99314.16
2023-03-20T06:30:28.751Z,99315.88
2023-03-20T06:32:55.644Z,99326.09
2023-03-20T06:35:22.572Z,99337.94
2023-03-20T06:37:49.411Z,99328.75
2023-03-20T06:40:16.679Z,99339.63
2023-03-20T06:42:43.525Z,99335.16
2023-03-20T06:45:11.235Z,99322.56
2023-03-20T06:47:38.085Z,99307.38
2023-03-20T06:50:05.583Z,99317.97
2023-03-20T06:52:32.612Z,99316.53
2023-03-20T06:54:59.477Z,99318.81
2023-03-20T06:57:26.297Z,99301.16
2023-03-20T06:59:53.667Z,99317.84
2023-03-20T07:02:20.863Z,99307.81
2023-03-20T07:04:47.737Z,99328.09
2023-03-20T07:07:14.557Z,99329.75
2023-03-20T07:09:41.493Z,99330.03
2023-03-20T07:12:16.581Z,99328.94
2023-03-20T07:14:43.661Z,99324.13
2023-03-20T07:17:11.648Z,99345.22
2023-03-20T07:19:39.276Z,99339.16
2023-03-20T07:22:08.929Z,99340.97
2023-03-20T07:24:35.842Z,99337.53
2023-03-20T07:27:02.724Z,99331.56
2023-03-20T07:29:29.550Z,99332.75
2023-03-20T07:31:56.342Z,99356.38
2023-03-20T07:34:23.200Z,99354.00
2023-03-20T07:36:49.971Z,99350.41
2023-03-20T07:39:17.440Z,99355.41
2023-03-20T07:41:44.277Z,99367.31
2023-03-20T07:44:11.115Z,99369.09
2023-03-20T07:46:37.969Z,99363.97
2023-03-20T07:49:05.730Z,99356.22
2023-03-20T07:51:33.289Z,99353.78
2023-03-20T07:54:00.576Z,99357.16
2023-03-20T07:56:27.345Z,99335.22
2023-03-20T07:58:54.719Z,99343.88
2023-03-20T08:01:21.808Z,99357.16
2023-03-20T08:03:48.799Z,99346.78
2023-03-20T08:06:15.817Z,99335.66
2023-03-20T08:08:42.937Z,99349.09
2023-03-20T08:11:09.723Z,99344.63
2023-03-20T08:13:36.551Z,99340.69
2023-03-20T08:16:03.987Z,99350.94
2023-03-20T08:18:30.830Z,99350.66
2023-03-20T08:20:57.653Z,99342.97
2023-03-20T08:23:24.477Z,99346.31
2023-03-20T08:25:54.054Z,99332.03
2023-03-20T08:28:21.367Z,99335.09
2023-03-20T08:30:48.309Z,99333.44
2023-03-20T08:33:17.582Z,99353.63
2023-03-20T08:35:46.368Z,99353.63
2023-03-20T08:38:13.924Z,99336.22
2023-03-20T08:40:42.009Z,99329.59
2023-03-20T08:43:09.350Z,99347.53
2023-03-20T08:45:36.608Z,99342.19
2023-03-20T08:48:03.889Z,99347.31
2023-03-20T08:50:31.567Z,99353.84
2023-03-20T08:52:58.418Z,99350.03
2023-03-20T08:55:25.306Z,99348.06
2023-03-20T08:57:53.165Z,99351.91
2023-03-20T09:00:20.585Z,99339.16
2023-03-20T09:02:47.433Z,99350.03
2023-03-20T09:05:14.323Z,99329.91
2023-03-20T09:07:41.191Z,99345.69
2023-03-20T09:10:09.384Z,99349.91
2023-03-20T09:12:36.347Z,99351.09
2023-03-20T09:15:05.079Z,99339.94
2023-03-20T09:17:32.120Z,99346.78
2023-03-20T09:19:59.258Z,99348.19
2023-03-20T09:22:26.092Z,99325.50
2023-03-20T09:24:52.998Z,99348.28
2023-03-20T09:27:19.844Z,99352.13
2023-03-20T09:29:46.739Z,99353.13
2023-03-20T09:32:15.584Z,99351.38
2023-03-20T09:34:42.671Z,99356.03
2023-03-20T09:37:09.759Z,99351.47
2023-03-20T09:39:36.623Z,99360.81
2023-03-20T09:42:20.276Z,99353.09
2023-03-20T09:45:37.770Z,99351.44
2023-03-20T09:48:32.994Z,99349.47
2023-03-20T09:51:25.384Z,99355.47
2023-03-20T09:54:07.308Z,99341.38
2023-03-20T09:56:34.538Z,99346.63
2023-03-20T09:59:04.676Z,99330.63
2023-03-20T10:01:56.314Z,99345.69
2023-03-20T10:04:29.104Z,99352.22
2023-03-20T10:06:59.198Z,99345.19
2023-03-20T10:09:29.053Z,99319.28
2023-03-20T10:12:06.647Z,99351.41
2023-03-20T10:15:04.279Z,99345.44
2023-03-20T10:18:10.194Z,99349.69
2023-03-20T10:20:50.701Z,99349.84
2023-03-20T10:23:51.911Z,99353.53
2023-03-20T10:26:23.883Z,99354.63
2023-03-20T10:29:03.572Z,99333.44
2023-03-20T10:32:03.433Z,99357.97
2023-03-20T10:35:10.254Z,99349.81
2023-03-20T10:37:45.744Z,99350.66
2023-03-20T10:40:27.415Z,99350.00
2023-03-20T10:43:00.524Z,99350.91
2023-03-20T10:45:54.225Z,99348.91
2023-03-20T10:48:31.278Z,99356.91
2023-03-20T10:51:02.231Z,99353.03
2023-03-20T10:53:47.756Z,99352.31
2023-03-20T10:56:27.472Z,99335.34
2023-03-20T10:59:25.249Z,99342.78
2023-03-20T11:01:52.678Z,99340.28
2023-03-20T11:04:20.029Z,99319.78
2023-03-20T11:07:29.326Z,99329.81
2023-03-20T11:10:04.901Z,99335.94
2023-03-20T11:12:44.830Z,99334.25
2023-03-20T11:15:46.319Z,99302.47
2023-03-20T11:18:15.725Z,99338.59
2023-03-20T11:20:57.604Z,99330.66
2023-03-20T11:23:31.295Z,99327.13
2023-03-20T11:26:03.569Z,99317.75
2023-03-20T11:28:36.221Z,99337.94
2023-03-20T11:31:16.412Z,99336.16
2023-03-20T11:34:14.256Z,99332.06
2023-03-20T11:37:19.893Z,99331.28
2023-03-20T11:40:35.643Z,99335.69
2023-03-20T11:43:03.839Z,99334.16
2023-03-20T11:45:46.481Z,99334.16
2023-03-20T11:48:23.721Z,99318.13
2023-03-20T11:51:03.562Z,99327.31
2023-03-20T11:53:40.951Z,99332.78
2023-03-20T11:56:20.988Z,99325.16
2023-03-20T11:58:57.368Z,99334.97
2023-03-20T12:01:26.200Z,99327.75
2023-03-20T12:04:03.459Z,99330.78
2023-03-20T12:07:12.742Z,99330.34
2023-03-20T12:09:52.653Z,99323.66
2023-03-20T12:12:47.657Z,99297.88
2023-03-20T12:15:34.269Z,99318.75
2023-03-20T12:18:30.947Z,99326.53
2023-03-20T12:21:15.566Z,99322.25
2023-03-20T12:23:56.346Z,99316.13
2023-03-20T12:27:05.648Z,99319.75
2023-03-20T12:29:42.023Z,99318.28
2023-03-20T12:32:35.663Z,99311.63
2023-03-20T12:35:19.670Z,99297.66
2023-03-20T12:37:46.478Z,99304.38
2023-03-20T12:40:17.887Z,99303.22
2023-03-20T12:43:04.866Z,99298.56
2023-03-20T12:45:44.222Z,99289.69
2023-03-20T12:48:46.693Z,99307.97
2023-03-20T12:51:52.414Z,99303.75
2023-03-20T12:54:59.538Z,99288.63
2023-03-20T12:57:37.576Z,99279.00
2023-03-20T13:00:49.760Z,99286.63
2023-03-20T13:03:44.343Z,99263.31
2023-03-20T13:06:24.365Z,99280.84
2023-03-20T13:09:44.729Z,99268.31
2023-03-20T13:12:37.345Z,99265.47
2023-03-20T13:15:49.483Z,99262.94
2023-03-20T13:18:34.306Z,99266.41
2023-03-20T13:21:10.754Z,99266.31
2023-03-20T13:23:51.919Z,99250.56
2023-03-20T13:26:52.680Z,99251.25
2023-03-20T13:29:38.407Z,99242.78
2023-03-20T13:32:46.342Z,99248.25
2023-03-20T13:35:42.499Z,99255.69
2023-03-20T13:38:20.548Z,99250.59
2023-03-20T13:40:52.525Z,99216.00
2023-03-20T13:43:29.078Z,99245.47
2023-03-20T13:46:09.580Z,99236.16
2023-03-20T13:48:42.365Z,99237.97
2023-03-20T13:51:29.902Z,99239.22
2023-03-20T13:54:27.378Z,99233.28
2023-03-20T13:57:26.413Z,99232.13
2023-03-20T14:00:22.564Z,99228.28
2023-03-20T14:03:28.535Z,99225.34
2023-03-20T14:05:56.107Z,99197.06
2023-03-20T14:08:32.435Z,99222.25
2023-03-20T14:11:21.834Z,99222.91
2023-03-20T14:13:59.398Z,99216.22
2023-03-20T14:16:29.028Z,99215.63
2023-03-20T14:19:18.034Z,99207.66
2023-03-20T14:21:50.312Z,99200.00
2023-03-20T14:24:19.630Z,99213.19
2023-03-20T14:27:05.794Z,99208.34
2023-03-20T14:29:37.309Z,99220.75
2023-03-20T14:32:13.014Z,99216.81
2023-03-20T14:35:21.165Z,99217.13
2023-03-20T14:38:09.860Z,99219.56
2023-03-20T14:40:47.924Z,99220.66
2023-03-20T14:43:26.453Z,99221.91
2023-03-20T14:46:14.840Z,99210.50
2023-03-20T14:48:53.834Z,99203.03
2023-03-20T14:51:20.615Z,99215.19
2023-03-20T14:54:18.266Z,99200.75
2023-03-20T14:56:45.226Z,99200.25
2023-03-20T14:59:15.023Z,99191.19
2023-03-20T15:01:46.268Z,99202.63
2023-03-20T15:04:41.171Z,99196.06
2023-03-20T15:07:24.647Z,99196.75
2023-03-20T15:09:55.538Z,99207.97
2023-03-20T15:12:28.444Z,99205.72
2023-03-20T15:15:01.495Z,99204.03
2023-03-20T15:17:47.756Z,99201.19
2023-03-20T15:20:31.911Z,99189.19
2023-03-20T15:23:01.677Z,99177.59
2023-03-20T15:25:37.759Z,99195.41
2023-03-20T15:28:12.808Z,99181.97
2023-03-20T15:30:40.712Z,99186.34
2023-03-20T15:33:16.874Z,99194.56
2023-03-20T15:35:44.537Z,99192.44
2023-03-20T15:38:15.600Z,99180.78
2023-03-20T15:40:51.135Z,99189.63
2023-03-20T15:43:26.486Z,99192.06
2023-03-20T15:46:16.338Z,99194.91
2023-03-20T15:48:49.284Z,99182.31
2023-03-20T15:51:17.297Z,99195.56
2023-03-20T15:53:48.090Z,99196.56
2023-03-20T15:56:19.800Z,99184.91
2023-03-20T15:58:52.402Z,99194.25
2023-03-20T16:01:25.190Z,99181.22
2023-03-20T16:03:58.836Z,99191.09
2023-03-20T16:06:26.725Z,99188.09
2023-03-20T16:09:02.878Z,99177.94
2023-03-20T16:11:39.810Z,99194.56
2023-03-20T16:14:12.412Z,99174.25
2023-03-20T16:16:39.798Z,99188.00
2023-03-20T16:19:07.744Z,99186.06
2023-03-20T16:21:39.076Z,99194.72
2023-03-20T16:24:17.088Z,99189.53
2023-03-20T16:26:49.329Z,99169.03
2023-03-20T16:29:16.987Z,99186.00
2023-03-20T16:32:02.496Z,99183.66
2023-03-20T16:34:38.154Z,99188.59
2023-03-20T16:37:24.405Z,99187.81
2023-03-20T16:40:14.554Z,99189.69
2023-03-20T16:42:42.171Z,99170.75
2023-03-20T16:45:33.922Z,99183.84
2023-03-20T16:48:39.858Z,99176.34
2023-03-20T16:51:16.447Z,99185.69
2023-03-20T16:53:48.008Z,99184.81
2023-03-20T16:56:29.104Z,99188.59
2023-03-20T16:58:57.053Z,99179.13
2023-03-20T17:01:27.817Z,99179.63
2023-03-20T17:03:58.250Z,99185.75
2023-03-20T17:06:36.238Z,99183.84
2023-03-20T17:09:19.525Z,99194.28
2023-03-20T17:11:51.640Z,99196.97
2023-03-20T17:14:18.454Z,99182.88
2023-03-20T17:16:45.394Z,99188.00
2023-03-20T17:19:18.705Z,99193.09
2023-03-20T17:21:46.313Z,99190.38
2023-03-20T17:24:14.612Z,99180.97
2023-03-20T17:26:46.514Z,99186.34
2023-03-20T17:29:13.835Z,99195.22
2023-03-20T17:31:40.691Z,99184.13
2023-03-20T17:34:07.589Z,99198.75
2023-03-20T17:36:35.493Z,99179.44
2023-03-20T17:39:02.516Z,99198.91
2023-03-20T17:41:29.437Z,99188.81
2023-03-20T17:43:56.673Z,99199.97
2023-03-20T17:46:30.210Z,99200.16
2023-03-20T17:49:13.435Z,99194.34
2023-03-20T17:51:40.731Z,99196.97
2023-03-20T17:54:07.684Z,99184.31
2023-03-20T17:56:35.277Z,99196.16
2023-03-20T17:59:03.419Z,99204.03
2023-03-20T18:01:32.593Z,99197.41
2023-03-20T18:03:59.719Z,99210.97
2023-03-20T18:06:32.714Z,99222.31
2023-03-20T18:09:01.865Z,99213.16
2023-03-20T18:11:29.547Z,99224.13
2023-03-20T18:13:56.759Z,99229.34
2023-03-20T18:16:26.767Z,99210.00
2023-03-20T18:18:54.519Z,99219.41
2023-03-20T18:21:21.800Z,99235.69
2023-03-20T18:23:48.672Z,99238.19
2023-03-20T18:26:23.616Z,99226.13
2023-03-20T18:28:53.077Z,99229.03
2023-03-20T18:31:21.355Z,99233.94
2023-03-20T18:33:51.589Z,99237.00
2023-03-20T18:36:21.862Z,99244.53
2023-03-20T18:38:49.502Z,99226.91
2023-03-20T18:41:16.801Z,99221.94
2023-03-20T18:43:44.656Z,99244.78
2023-03-20T18:46:22.231Z,99226.63
2023-03-20T18:48:51.846Z,99224.78
2023-03-20T18:51:20.476Z,99252.75
2023-03-20T18:53:47.331Z,99244.47
2023-03-20T18:56:20.714Z,99246.00
2023-03-20T18:58:48.175Z,99242.44
2023-03-20T19:01:17.346Z,99246.69
2023-03-20T19:03:46.231Z,99243.16
2023-03-20T19:06:22.966Z,99241.59
2023-03-20T19:08:50.751Z,99239.84
2023-03-20T19:11:21.363Z,99240.66
2023-03-20T19:13:52.379Z,99239.84
2023-03-20T19:16:27.209Z,99247.47
2023-03-20T19:18:56.469Z,99215.78
2023-03-20T19:21:26.658Z,99227.56
2023-03-20T19:24:02.373Z,99242.66
2023-03-20T19:26:32.447Z,99240.97
2023-03-20T19:29:01.194Z,99236.63
2023-03-20T19:31:28.983Z,99219.00
2023-03-20T19:33:56.787Z,99230.88
2023-03-20T19:36:32.339Z,99235.78
2023-03-20T19:39:01.710Z,99207.22
2023-03-20T19:41:31.338Z,99235.78
2023-03-20T19:43:59.765Z,99234.09
2023-03-20T19:46:39.710Z,99221.50
2023-03-20T19:49:20.261Z,99230.75
2023-03-20T19:51:48.913Z,99230.97
2023-03-20T19:54:16.160Z,99215.91
2023-03-20T19:56:42.973Z,99220.13
2023-03-20T19:59:09.820Z,99243.25
2023-03-20T20:01:36.776Z,99222.81
2023-03-20T20:04:04.195Z,99236.06
2023-03-20T20:06:32.979Z,99235.25
2023-03-20T20:09:01.171Z,99213.88
2023-03-20T20:11:28.699Z,99223.09
2023-03-20T20:14:14.482Z,99226.47
2023-03-20T20:16:43.064Z,99208.00
2023-03-20T20:19:10.563Z,99214.69
2023-03-20T20:24:24.519Z,99202.81
2023-03-20T20:26:56.869Z,99217.91
2023-03-20T20:29:34.209Z,99212.63
2023-03-20T20:32:01.446Z,99221.25
2023-03-20T20:40:05.166Z,99183.63
2023-03-20T20:42:32.130Z,99214.69
2023-03-20T20:44:58.928Z,99220.50
2023-03-20T20:47:25.930Z,99223.09
2023-03-20T20:49:52.769Z,99215.78
2023-03-20T20:52:19.646Z,99206.03
2023-03-20T20:54:46.501Z,99228.44
2023-03-20T20:57:14.255Z,99230.75
2023-03-20T20:59:41.431Z,99235.97
2023-03-20T21:02:15.555Z,99243.75
2023-03-20T21:04:43.585Z,99247.25
2023-03-20T21:07:13.028Z,99245.56
2023-03-20T21:09:40.814Z,99250.91
2023-03-20T21:12:10.329Z,99225.69
2023-03-20T21:14:37.750Z,99241.13
2023-03-20T21:17:06.092Z,99246.00
2023-03-20T21:19:37.112Z,99234.25
2023-03-20T21:22:06.092Z,99244.34
2023-03-20T21:24:35.132Z,99225.00
2023-03-20T21:27:05.387Z,99242.72
2023-03-20T21:29:32.291Z,99234.50
2023-03-20T21:31:59.189Z,99246.34
2023-03-20T21:34:26.526Z,99223.66
2023-03-20T21:36:53.383Z,99201.88
2023-03-20T21:39:20.612Z,99242.34
2023-03-20T21:41:47.604Z,99233.09
2023-03-20T21:44:18.351Z,99206.81
2023-03-20T21:47:50.531Z,99234.78
2023-03-20T22:04:19.020Z,99232.50
2023-03-20T22:12:52.775Z,99225.13
2023-03-20T22:17:59.748Z,99233.94
2023-03-20T22:23:48.897Z,99228.25
2023-03-20T22:26:47.342Z,99235.94
2023-03-20T22:32:11.048Z,99239.56
2023-03-20T22:34:54.396Z,99237.19
2023-03-20T22:40:37.093Z,99243.34
2023-03-20T22:43:52.153Z,99237.47
2023-03-20T22:45:34.420Z,99225.84
2023-03-20T22:48:08.978Z,99218.41
2023-03-20T22:50:36.563Z,99237.69
2023-03-20T22:53:03.513Z,99213.09
2023-03-20T22:55:30.341Z,99224.53
2023-03-20T22:58:06.984Z,99229.34
2023-03-20T23:00:35.753Z,99223.31
2023-03-20T23:03:17.138Z,99221.50
2023-03-20T23:05:51.023Z,99208.88
2023-03-20T23:08:17.917Z,99220.72
2023-03-20T23:10:49.062Z,99219.09
2023-03-20T23:13:17.909Z,99220.88
2023-03-20T23:15:50.482Z,99209.72
2023-03-20T23:18:17.930Z,99209.72
2023-03-20T23:20:45.151Z,99213.22
2023-03-20T23:23:12.047Z,99216.84
2023-03-20T23:25:40.520Z,99210.13
2023-03-20T23:28:09.483Z,99212.66
2023-03-20T23:30:45.216Z,99216.00
2023-03-20T23:33:14.988Z,99206.75
2023-03-20T23:35:41.852Z,99215.31
2023-03-20T23:38:08.786Z,99203.53
2023-03-20T23:40:36.367Z,99211.94
2023-03-20T23:43:03.708Z,99208.47
2023-03-20T23:45:30.867Z,99203.34
2023-03-20T23:47:57.710Z,99205.09
2023-03-20T23:53:19.818Z,99197.38
2023-03-20T23:55:50.737Z,99188.91
2023-03-20T23:58:18.802Z,99195.84
